Central Oregon RPC :: STANDISH CA B

liberation: 2021-05-16  08:25     latitude: 40.366766     longitude: -120.422946 112 birds
# LOFT PRING MILES ARRIVAL SPEED ToWin
1 ROCKY TOP AU19-CORP-4405 269.815 2021-05-16 14:42:21.442 1258.420 00:00:00
2 ROCKY TOP AU18-CORP-3353 269.815 2021-05-16 14:42:49.261 1256.876 00:00:28
3 LUCAS CRAMER AU18-CORP-2247 294.503 2021-05-16 15:17:46.671 1255.698 00:00:54
4 LUCAS CRAMER AU20-TBW-20080 294.503 2021-05-16 15:17:58.974 1255.075 00:01:06
5 LUCAS CRAMER AU20-AA-11668 294.503 2021-05-16 15:18:17.394 1254.142 00:01:24
6 LUCAS CRAMER AU20-GRPC-0547 294.503 2021-05-16 15:30:16.054 1218.820 00:13:23
7 ROCKY TOP AU18-CORP-3351 269.815 2021-05-16 15:03:12.054 1192.549 00:20:51
8 LUCAS CRAMER AU20-NANZ-0042 294.503 2021-05-16 15:43:21.096 1182.440 00:26:28
9 ROCKY TOP AU19-CORP-4473 269.815 2021-05-16 15:08:21.611 1177.295 00:26:00
10 AMERICAN LOFT AU19-CORP-4652 274.861 2021-05-16 15:15:59.384 1177.049 00:26:35
11 TOPIGEONUSA AU20-CORP-4868 276.13 2021-05-16 15:18:55.556 1174.097 00:27:44
12 LUCAS CRAMER AU18-CORP-2201 294.503 2021-05-16 15:50:31.025 1163.422 00:33:38
13 LUCAS CRAMER AU20-CALA-0003 294.503 2021-05-16 15:51:15.826 1161.475 00:34:23
14 LUCAS CRAMER AU20-FAM-0007 294.503 2021-05-16 15:54:33.274 1152.973 00:37:40
15 LUCAS CRAMER CU20-CRPU-11568 294.503 2021-05-16 16:00:56.142 1136.837 00:44:03
16 ROCKY TOP AU19-CORP-4477 269.815 2021-05-16 15:23:56.728 1133.498 00:41:35
17 TIM GRAVES AU15-CORP-3096 268.815 2021-05-16 15:24:58.822 1126.514 00:44:01
18 AMERICAN LOFT AU19-CORP-4654 274.861 2021-05-16 15:35:18.720 1124.196 00:45:54
19 LUCAS CRAMER AU19-LKC-4674 294.503 2021-05-16 16:08:37.864 1117.967 00:51:45
20 TOPIGEONUSA AU20-CORP-4324 276.13 2021-05-16 15:43:57.284 1107.151 00:52:46
21 LUCAS CRAMER AU20-ARPU-22504 294.503 2021-05-16 16:16:15.054 1099.891 00:59:22
22 LUCAS CRAMER AU20-GSWC-0755 294.503 2021-05-16 16:16:27.989 1099.388 00:59:35
23 ROCKY TOP AU19-CORP-4454 269.815 2021-05-16 15:39:11.719 1093.688 00:56:50
24 RUETER FAMILY LOFT AU19-CORP-5330 304.637 2021-05-16 16:36:58.296 1089.820 01:05:55
25 ROCKY TOP AU17-OTC-0317 269.815 2021-05-16 15:48:50.043 1069.936 01:06:29
26 TIM GRAVES AU15-ARPU-14510 268.815 2021-05-16 15:57:38.789 1045.217 01:16:41
27 TOPIGEONUSA AU20-CORP-5027 276.13 2021-05-16 16:11:45.282 1041.209 01:20:34
28 TOPIGEONUSA AU19-CORP-4991 276.13 2021-05-16 16:19:41.814 1023.788 01:28:30
29 LUCAS CRAMER AU20-WPC-1528 294.503 2021-05-16 16:55:33.429 1015.213 01:38:40
30 LUCAS CRAMER AU20-PLAT-18413 294.503 2021-05-16 16:56:49.598 1012.695 01:39:57
31 RUETER FAMILY LOFT AU20-CORP-4635 304.637 2021-05-16 17:16:38.532 1008.498 01:45:35
32 RUETER FAMILY LOFT AU19-CORP-5447 304.637 2021-05-16 17:17:36.970 1006.654 01:46:33
33 LUCAS CRAMER AU20-CORP-4245 294.503 2021-05-16 17:06:53.665 993.160 01:50:01
34 LUCAS CRAMER AU19-LKC-4661 294.503 2021-05-16 17:11:53.410 983.743 01:55:00
35 LUCAS CRAMER AU20-LIAN-2034 294.503 2021-05-16 17:14:48.497 978.324 01:57:55
36 ROCKY TOP AU18-CORP-3300 269.815 2021-05-16 16:33:57.606 971.192 01:51:36
37 LUCAS CRAMER AU20-KFLY-2005 294.503 2021-05-16 17:21:53.814 965.408 02:05:01
38 LUCAS CRAMER AU20-ZA-7650 294.503 2021-05-16 17:58:40.221 903.523 02:41:47
39 LUCAS CRAMER AU20-PUEB-20507 294.503 2021-05-16 18:09:45.602 886.388 02:52:53
40 LUCAS CRAMER AU20-GUTZ-0219 294.503 2021-05-16 18:12:44.918 881.881 02:55:52
41 TOPIGEONUSA AU20-CORP-4830 276.13 2021-05-16 17:49:37.221 860.736 02:58:26
42 AMERICAN LOFT AU17-CORP-0078 274.861 2021-05-16 17:49:30.112 856.959 03:00:05
43 ROCKY TOP AU19-CORP-4435 269.815 2021-05-16 17:41:12.721 853.764 02:58:51
44 ROCKY TOP AU16-CORP-7701 269.815 2021-05-16 18:00:49.397 824.687 03:18:28
45 AMERICAN LOFT AU19-CORP-4751 274.861 2021-05-16 18:22:00.631 810.296 03:32:36
46 TOPIGEONUSA AU20-CORP-4373 276.13 2021-05-16 18:41:46.736 787.947 03:50:35
47 LUCAS CRAMER AU17-CORP-1074 294.503 2021-05-16 19:24:55.173 785.436 04:08:02
48 TOPIGEONUSA AU20-CORP-4325 276.13 2021-05-16 18:50:53.059 776.484 03:59:42
49 RUETER FAMILY LOFT AU20-CORP-4574 304.637 2021-05-16 19:56:41.355 775.146 04:25:38
50 AMERICAN LOFT AU19-CORP-4605 274.861 2021-05-16 18:49:41.123 774.398 04:00:16
51 TOPIGEONUSA AU19-CORP-4907 276.13 2021-05-16 19:01:10.867 763.916 04:09:59
52 ROCKY TOP AU19-CORP-4474 269.815 2021-05-16 19:01:10.762 746.447 04:18:49
53 LUCAS CRAMER AU19-CORP-4110 294.503 2021-05-16 20:20:03.647 724.868 05:03:11
54 TOPIGEONUSA AU19-CORP-5151 276.13 2021-05-16 19:40:03.230 719.926 04:48:52
55 ROCKY TOP AU18-CORP-3313 269.815 2021-05-16 20:11:17.080 672.355 05:28:56
56 AMERICAN LOFT AU19-CORP-4706 274.861 2021-05-16 20:26:34.771 670.411 05:37:10
57 TOPIGEONUSA AU19-CORP-5124 276.13 2021-05-16 20:44:27.126 659.162 05:51:06
58 LUCAS CRAMER AU20-TBW-20076 294.503 2021-05-17 06:03:13.750 658.179 06:15:38
59 RUETER FAMILY LOFT AU20-CORP-4566 304.637 2021-05-17 07:01:05.731 634.225 06:59:19
60 ROCKY TOP AU19-ARPU-29012 269.815 2021-05-17 05:52:04.720 611.666 06:39:00
61 AMERICAN LOFT AU17-CORP-0096 274.861 2021-05-17 06:14:32.251 605.587 06:54:24
62 RUETER FAMILY LOFT AU19-CORP-5310 304.637 2021-05-17 07:46:30.386 601.893 07:44:44
63 LUCAS CRAMER AU19-LKC-4663 294.503 2021-05-17 07:24:09.520 596.844 07:36:33
64 AMERICAN LOFT AU19-CORP-4681 274.861 2021-05-17 06:32:14.997 592.450 07:12:07
65 ROCKY TOP AU17-CORP-0798 269.815 2021-05-17 06:23:50.532 587.624 07:10:46
66 RUETER FAMILY LOFT AU19-CORP-5455 304.637 2021-05-17 08:19:06.903 580.638 08:17:20
67 ROCKY TOP AU18-CORP-3371 269.815 2021-05-17 06:34:59.349 579.629 07:21:55
68 TOPIGEONUSA AU20-CORP-4375 276.13 2021-05-17 06:58:47.680 576.446 07:36:53
69 LUCAS CRAMER AU20-NEM-0634 294.503 2021-05-17 08:11:42.975 565.857 08:24:07
70 TOPIGEONUSA AU20-CORP-4372 276.13 2021-05-17 07:20:35.446 561.919 07:58:41
71 RUETER FAMILY LOFT AU19-CORP-5367 304.637 2021-05-17 09:01:50.191 554.963 09:00:04
72 LUCAS CRAMER AU20-DBJ-1929 294.503 2021-05-17 08:37:16.504 550.496 08:49:40
73 RUETER FAMILY LOFT AU20-CORP-4527 304.637 2021-05-17 09:16:35.905 546.611 09:14:49
74 LUCAS CRAMER AU20-GWC-0059 294.503 2021-05-17 08:50:26.904 542.901 09:02:51
75 LUCAS CRAMER AU20-ARPU-56021 294.503 2021-05-17 08:56:30.860 539.473 09:08:55
76 TOPIGEONUSA AU16-CORP-7994 276.13 2021-05-17 08:06:45.222 533.446 08:44:51
77 ROCKY TOP AU19-CORP-4400 269.815 2021-05-17 07:48:45.105 531.753 08:35:41
78 AMERICAN LOFT AU19-CORP-4708 274.861 2021-05-17 08:43:46.604 510.258 09:23:39
79 ROCKY TOP AU18-CORP-3343 269.815 2021-05-17 08:43:26.383 501.068 09:30:22
80 AMERICAN LOFT AU18-CORP-2549 274.861 2021-05-17 09:07:30.990 497.793 09:47:23
81 AMERICAN LOFT AU19-CORP-4774 274.861 2021-05-17 09:19:17.441 491.834 09:59:10
82 LUCAS CRAMER AU20-RAC-2818 294.503 2021-05-17 10:29:53.713 491.686 10:42:18
83 AMERICAN LOFT AU19-CORP-4698 274.861 2021-05-17 09:32:19.281 485.403 10:12:11
84 TIM GRAVES AU17-FHI-1014 268.815 2021-05-17 09:22:20.929 479.524 10:10:40
85 RUETER FAMILY LOFT AU18-CORP-2684 304.637 2021-05-17 11:55:11.284 470.534 11:53:25
86 AMERICAN LOFT AU19-CORP-4638 274.861 2021-05-17 10:08:20.155 468.474 10:48:12
87 ROCKY TOP AU20-CORP-4476 269.815 2021-05-17 09:59:40.930 463.760 10:46:36
88 TOPIGEONUSA AU19-CORP-5134 276.13 2021-05-17 10:41:18.137 456.077 11:19:24
89 LUCAS CRAMER AU20-ARPU-30169 294.503 2021-05-17 11:56:31.667 454.347 12:08:56
90 LUCAS CRAMER AU20-HADJ-0025 294.503 2021-05-17 12:02:40.663 451.911 12:15:05
91 AMERICAN LOFT AU19-CORP-4683 274.861 2021-05-17 11:03:07.844 444.868 11:43:00
92 AMERICAN LOFT AU19-CORP-4643 274.861 2021-05-17 11:08:39.985 442.614 11:48:32
93 AMERICAN LOFT AU19-CORP-4746 274.861 2021-05-17 12:05:02.325 420.905 12:44:54
94 TOPIGEONUSA AU18-CORP-3173 276.13 2021-05-17 12:15:54.978 418.884 12:54:01
95 AMERICAN LOFT AU16-CORP-7444 274.861 2021-05-17 13:00:23.687 401.564 13:40:16
AMERICAN LOFT AU19-CORP-4620 0 0000-00-00 00:00:00.000 0.000 00:00:00
AMERICAN LOFT AU20-CORP-5415 0 0000-00-00 00:00:00.000 0.000 00:00:00
AMERICAN LOFT AU20-CORP-5530 0 0000-00-00 00:00:00.000 0.000 00:00:00
AMERICAN LOFT AU20-CORP-5573 0 0000-00-00 00:00:00.000 0.000 00:00:00
LUCAS CRAMER AU20-AA-16309 0 0000-00-00 00:00:00.000 0.000 00:00:00
LUCAS CRAMER AU20-ARPU-30166 0 0000-00-00 00:00:00.000 0.000 00:00:00
LUCAS CRAMER AU20-CORP-4264 0 0000-00-00 00:00:00.000 0.000 00:00:00
LUCAS CRAMER AU20-JEDD-14374 0 0000-00-00 00:00:00.000 0.000 00:00:00
ROCKY TOP AU16-CORP-7143 0 0000-00-00 00:00:00.000 0.000 00:00:00
ROCKY TOP AU18-CORP-3310 0 0000-00-00 00:00:00.000 0.000 00:00:00
ROCKY TOP AU20-CORP-4400 0 0000-00-00 00:00:00.000 0.000 00:00:00
RUETER FAMILY LOFT AU19-CORP-5358 0 0000-00-00 00:00:00.000 0.000 00:00:00
RUETER FAMILY LOFT AU19-CORP-5458 0 0000-00-00 00:00:00.000 0.000 00:00:00
TIM GRAVES AU17-CORP-0879 0 0000-00-00 00:00:00.000 0.000 00:00:00
TOPIGEONUSA AU19-CORP-4913 0 0000-00-00 00:00:00.000 0.000 00:00:00
TOPIGEONUSA AU20-CORP-4310 0 0000-00-00 00:00:00.000 0.000 00:00:00
TOPIGEONUSA AU20-CORP-4378 0 0000-00-00 00:00:00.000 0.000 00:00:00